sensor_id;sensor_type;location;lat;lon;timestamp;P1;durP1;ratioP1;P2;durP2;ratioP2
72139;SDS011;60018;49.688;19.180;2022-11-20T00:00:20;0.83;;;0.83;;
72139;SDS011;60018;49.688;19.180;2022-11-20T00:02:47;0.67;;;0.67;;
72139;SDS011;60018;49.688;19.180;2022-11-20T00:05:13;0.63;;;0.63;;
72139;SDS011;60018;49.688;19.180;2022-11-20T00:07:38;0.73;;;0.73;;
72139;SDS011;60018;49.688;19.180;2022-11-20T00:10:04;0.63;;;0.63;;
72139;SDS011;60018;49.688;19.180;2022-11-20T00:12:30;0.83;;;0.83;;
72139;SDS011;60018;49.688;19.180;2022-11-20T00:14:56;0.77;;;0.77;;
72139;SDS011;60018;49.688;19.180;2022-11-20T00:17:21;0.73;;;0.73;;
72139;SDS011;60018;49.688;19.180;2022-11-20T00:19:48;0.73;;;0.73;;
72139;SDS011;60018;49.688;19.180;2022-11-20T00:22:13;0.83;;;0.83;;
72139;SDS011;60018;49.688;19.180;2022-11-20T00:24:39;0.77;;;0.77;;
72139;SDS011;60018;49.688;19.180;2022-11-20T00:27:04;0.77;;;0.77;;
72139;SDS011;60018;49.688;19.180;2022-11-20T00:29:30;0.73;;;0.73;;
72139;SDS011;60018;49.688;19.180;2022-11-20T00:31:55;0.73;;;0.73;;
72139;SDS011;60018;49.688;19.180;2022-11-20T00:34:21;0.73;;;0.73;;
72139;SDS011;60018;49.688;19.180;2022-11-20T00:36:47;0.83;;;0.83;;
72139;SDS011;60018;49.688;19.180;2022-11-20T00:39:13;0.73;;;0.73;;
72139;SDS011;60018;49.688;19.180;2022-11-20T00:41:38;0.77;;;0.77;;
72139;SDS011;60018;49.688;19.180;2022-11-20T00:44:04;0.73;;;0.73;;
72139;SDS011;60018;49.688;19.180;2022-11-20T00:46:29;0.67;;;0.67;;
72139;SDS011;60018;49.688;19.180;2022-11-20T00:48:55;0.77;;;0.77;;
72139;SDS011;60018;49.688;19.180;2022-11-20T00:51:22;0.83;;;0.83;;
72139;SDS011;60018;49.688;19.180;2022-11-20T00:53:50;0.73;;;0.73;;
72139;SDS011;60018;49.688;19.180;2022-11-20T00:56:17;0.83;;;0.83;;
72139;SDS011;60018;49.688;19.180;2022-11-20T00:58:44;0.77;;;0.77;;
72139;SDS011;60018;49.688;19.180;2022-11-20T01:01:11;0.73;;;0.73;;
72139;SDS011;60018;49.688;19.180;2022-11-20T01:03:38;0.77;;;0.77;;
72139;SDS011;60018;49.688;19.180;2022-11-20T01:06:05;0.83;;;0.83;;
72139;SDS011;60018;49.688;19.180;2022-11-20T01:08:32;0.77;;;0.77;;
72139;SDS011;60018;49.688;19.180;2022-11-20T01:11:01;0.73;;;0.73;;
72139;SDS011;60018;49.688;19.180;2022-11-20T01:13:27;0.73;;;0.73;;
72139;SDS011;60018;49.688;19.180;2022-11-20T01:15:52;0.77;;;0.77;;
72139;SDS011;60018;49.688;19.180;2022-11-20T01:18:17;0.83;;;0.83;;
72139;SDS011;60018;49.688;19.180;2022-11-20T01:20:43;0.77;;;0.77;;
72139;SDS011;60018;49.688;19.180;2022-11-20T01:23:08;0.73;;;0.73;;
72139;SDS011;60018;49.688;19.180;2022-11-20T01:25:34;0.67;;;0.67;;
72139;SDS011;60018;49.688;19.180;2022-11-20T01:28:01;0.57;;;0.57;;
72139;SDS011;60018;49.688;19.180;2022-11-20T01:30:26;0.77;;;0.77;;
72139;SDS011;60018;49.688;19.180;2022-11-20T01:32:51;0.63;;;0.63;;
72139;SDS011;60018;49.688;19.180;2022-11-20T01:35:17;0.77;;;0.77;;
72139;SDS011;60018;49.688;19.180;2022-11-20T01:37:42;0.77;;;0.77;;
72139;SDS011;60018;49.688;19.180;2022-11-20T01:40:08;0.83;;;0.83;;
72139;SDS011;60018;49.688;19.180;2022-11-20T01:42:34;0.73;;;0.73;;
72139;SDS011;60018;49.688;19.180;2022-11-20T01:45:01;0.60;;;0.60;;
72139;SDS011;60018;49.688;19.180;2022-11-20T01:47:43;0.83;;;0.83;;
72139;SDS011;60018;49.688;19.180;2022-11-20T01:50:11;0.77;;;0.77;;
72139;SDS011;60018;49.688;19.180;2022-11-20T01:52:42;0.77;;;0.77;;
72139;SDS011;60018;49.688;19.180;2022-11-20T01:55:11;0.73;;;0.73;;
72139;SDS011;60018;49.688;19.180;2022-11-20T01:57:39;0.83;;;0.83;;
72139;SDS011;60018;49.688;19.180;2022-11-20T02:00:08;0.87;;;0.87;;
72139;SDS011;60018;49.688;19.180;2022-11-20T02:02:35;0.83;;;0.83;;
72139;SDS011;60018;49.688;19.180;2022-11-20T02:05:04;0.83;;;0.83;;
72139;SDS011;60018;49.688;19.180;2022-11-20T02:07:39;0.77;;;0.77;;
72139;SDS011;60018;49.688;19.180;2022-11-20T02:10:05;0.77;;;0.77;;
72139;SDS011;60018;49.688;19.180;2022-11-20T02:12:31;0.87;;;0.87;;
72139;SDS011;60018;49.688;19.180;2022-11-20T02:14:57;0.73;;;0.73;;
72139;SDS011;60018;49.688;19.180;2022-11-20T02:17:24;0.87;;;0.87;;
72139;SDS011;60018;49.688;19.180;2022-11-20T02:19:50;0.83;;;0.83;;
72139;SDS011;60018;49.688;19.180;2022-11-20T02:22:17;0.77;;;0.77;;
72139;SDS011;60018;49.688;19.180;2022-11-20T02:24:49;0.67;;;0.67;;
72139;SDS011;60018;49.688;19.180;2022-11-20T02:27:16;0.87;;;0.87;;
72139;SDS011;60018;49.688;19.180;2022-11-20T02:29:42;0.60;;;0.60;;
72139;SDS011;60018;49.688;19.180;2022-11-20T02:32:17;0.77;;;0.77;;
72139;SDS011;60018;49.688;19.180;2022-11-20T02:34:43;0.52;;;0.52;;
72139;SDS011;60018;49.688;19.180;2022-11-20T02:37:09;0.77;;;0.77;;
72139;SDS011;60018;49.688;19.180;2022-11-20T02:39:34;0.73;;;0.73;;
72139;SDS011;60018;49.688;19.180;2022-11-20T02:42:01;0.77;;;0.77;;
72139;SDS011;60018;49.688;19.180;2022-11-20T02:44:26;0.73;;;0.73;;
72139;SDS011;60018;49.688;19.180;2022-11-20T02:46:52;0.73;;;0.73;;
72139;SDS011;60018;49.688;19.180;2022-11-20T02:49:17;0.87;;;0.87;;
72139;SDS011;60018;49.688;19.180;2022-11-20T02:51:42;0.77;;;0.77;;
72139;SDS011;60018;49.688;19.180;2022-11-20T02:54:08;0.83;;;0.83;;
72139;SDS011;60018;49.688;19.180;2022-11-20T02:56:33;0.70;;;0.70;;
72139;SDS011;60018;49.688;19.180;2022-11-20T02:59:00;0.73;;;0.73;;
72139;SDS011;60018;49.688;19.180;2022-11-20T03:01:26;0.77;;;0.77;;
72139;SDS011;60018;49.688;19.180;2022-11-20T03:03:51;0.83;;;0.83;;
72139;SDS011;60018;49.688;19.180;2022-11-20T03:06:16;0.83;;;0.83;;
72139;SDS011;60018;49.688;19.180;2022-11-20T03:08:42;0.60;;;0.60;;
72139;SDS011;60018;49.688;19.180;2022-11-20T03:11:08;0.77;;;0.77;;
72139;SDS011;60018;49.688;19.180;2022-11-20T03:13:34;0.67;;;0.67;;
72139;SDS011;60018;49.688;19.180;2022-11-20T03:16:05;0.73;;;0.73;;
72139;SDS011;60018;49.688;19.180;2022-11-20T03:18:32;0.63;;;0.63;;
72139;SDS011;60018;49.688;19.180;2022-11-20T03:20:57;0.73;;;0.73;;
72139;SDS011;60018;49.688;19.180;2022-11-20T03:23:23;0.83;;;0.83;;
72139;SDS011;60018;49.688;19.180;2022-11-20T03:25:48;0.73;;;0.73;;
72139;SDS011;60018;49.688;19.180;2022-11-20T03:28:14;0.50;;;0.50;;
72139;SDS011;60018;49.688;19.180;2022-11-20T03:30:39;0.77;;;0.77;;
72139;SDS011;60018;49.688;19.180;2022-11-20T03:33:06;0.73;;;0.73;;
72139;SDS011;60018;49.688;19.180;2022-11-20T03:35:31;0.77;;;0.77;;
72139;SDS011;60018;49.688;19.180;2022-11-20T03:37:57;0.83;;;0.83;;
72139;SDS011;60018;49.688;19.180;2022-11-20T03:40:22;0.73;;;0.73;;
72139;SDS011;60018;49.688;19.180;2022-11-20T03:42:48;0.73;;;0.73;;
72139;SDS011;60018;49.688;19.180;2022-11-20T03:45:13;0.73;;;0.73;;
72139;SDS011;60018;49.688;19.180;2022-11-20T03:47:39;0.60;;;0.60;;
72139;SDS011;60018;49.688;19.180;2022-11-20T03:50:07;0.67;;;0.67;;
72139;SDS011;60018;49.688;19.180;2022-11-20T03:52:32;0.77;;;0.77;;
72139;SDS011;60018;49.688;19.180;2022-11-20T03:54:58;0.67;;;0.67;;
72139;SDS011;60018;49.688;19.180;2022-11-20T03:57:23;0.60;;;0.60;;
72139;SDS011;60018;49.688;19.180;2022-11-20T03:59:49;0.73;;;0.73;;
72139;SDS011;60018;49.688;19.180;2022-11-20T04:02:14;0.57;;;0.57;;
72139;SDS011;60018;49.688;19.180;2022-11-20T04:04:40;0.77;;;0.77;;
72139;SDS011;60018;49.688;19.180;2022-11-20T04:07:06;0.73;;;0.73;;
72139;SDS011;60018;49.688;19.180;2022-11-20T04:09:32;0.73;;;0.73;;
72139;SDS011;60018;49.688;19.180;2022-11-20T04:11:57;0.77;;;0.77;;
72139;SDS011;60018;49.688;19.180;2022-11-20T04:14:23;0.57;;;0.57;;
72139;SDS011;60018;49.688;19.180;2022-11-20T04:16:48;0.53;;;0.53;;
72139;SDS011;60018;49.688;19.180;2022-11-20T04:19:15;0.63;;;0.63;;
72139;SDS011;60018;49.688;19.180;2022-11-20T04:21:41;0.73;;;0.73;;
72139;SDS011;60018;49.688;19.180;2022-11-20T04:24:08;0.73;;;0.73;;
72139;SDS011;60018;49.688;19.180;2022-11-20T04:26:34;0.73;;;0.73;;
72139;SDS011;60018;49.688;19.180;2022-11-20T04:28:59;0.57;;;0.57;;
72139;SDS011;60018;49.688;19.180;2022-11-20T04:31:25;0.67;;;0.67;;
72139;SDS011;60018;49.688;19.180;2022-11-20T04:33:52;0.67;;;0.67;;
72139;SDS011;60018;49.688;19.180;2022-11-20T04:36:19;0.63;;;0.63;;
72139;SDS011;60018;49.688;19.180;2022-11-20T04:38:45;0.77;;;0.77;;
72139;SDS011;60018;49.688;19.180;2022-11-20T04:41:14;0.77;;;0.77;;
72139;SDS011;60018;49.688;19.180;2022-11-20T04:43:41;0.77;;;0.77;;
72139;SDS011;60018;49.688;19.180;2022-11-20T04:46:06;0.77;;;0.77;;
72139;SDS011;60018;49.688;19.180;2022-11-20T04:48:32;0.57;;;0.57;;
72139;SDS011;60018;49.688;19.180;2022-11-20T04:51:02;0.83;;;0.83;;
72139;SDS011;60018;49.688;19.180;2022-11-20T04:53:27;0.77;;;0.77;;
72139;SDS011;60018;49.688;19.180;2022-11-20T04:55:58;0.77;;;0.77;;
72139;SDS011;60018;49.688;19.180;2022-11-20T04:58:26;0.77;;;0.77;;
72139;SDS011;60018;49.688;19.180;2022-11-20T05:00:51;0.67;;;0.67;;
72139;SDS011;60018;49.688;19.180;2022-11-20T05:03:16;0.77;;;0.77;;
72139;SDS011;60018;49.688;19.180;2022-11-20T05:05:42;0.77;;;0.77;;
72139;SDS011;60018;49.688;19.180;2022-11-20T05:08:07;0.63;;;0.63;;
72139;SDS011;60018;49.688;19.180;2022-11-20T05:10:33;0.67;;;0.67;;
72139;SDS011;60018;49.688;19.180;2022-11-20T05:12:58;0.77;;;0.77;;
72139;SDS011;60018;49.688;19.180;2022-11-20T05:15:25;0.87;;;0.87;;
72139;SDS011;60018;49.688;19.180;2022-11-20T05:17:51;0.83;;;0.83;;
72139;SDS011;60018;49.688;19.180;2022-11-20T05:20:17;0.83;;;0.83;;
72139;SDS011;60018;49.688;19.180;2022-11-20T05:22:43;0.70;;;0.70;;
72139;SDS011;60018;49.688;19.180;2022-11-20T05:25:09;0.73;;;0.73;;
72139;SDS011;60018;49.688;19.180;2022-11-20T05:27:34;0.77;;;0.77;;
72139;SDS011;60018;49.688;19.180;2022-11-20T05:30:00;0.67;;;0.67;;
72139;SDS011;60018;49.688;19.180;2022-11-20T05:32:27;0.77;;;0.77;;
72139;SDS011;60018;49.688;19.180;2022-11-20T05:34:52;0.73;;;0.73;;
72139;SDS011;60018;49.688;19.180;2022-11-20T05:37:17;0.63;;;0.63;;
72139;SDS011;60018;49.688;19.180;2022-11-20T05:39:43;0.73;;;0.73;;
72139;SDS011;60018;49.688;19.180;2022-11-20T05:42:08;0.73;;;0.73;;
72139;SDS011;60018;49.688;19.180;2022-11-20T05:44:34;0.67;;;0.67;;
72139;SDS011;60018;49.688;19.180;2022-11-20T05:46:59;0.77;;;0.77;;
72139;SDS011;60018;49.688;19.180;2022-11-20T05:49:26;0.83;;;0.83;;
72139;SDS011;60018;49.688;19.180;2022-11-20T05:51:51;0.73;;;0.73;;
72139;SDS011;60018;49.688;19.180;2022-11-20T05:54:17;0.67;;;0.67;;
72139;SDS011;60018;49.688;19.180;2022-11-20T05:56:42;0.57;;;0.57;;
72139;SDS011;60018;49.688;19.180;2022-11-20T05:59:08;0.73;;;0.73;;
72139;SDS011;60018;49.688;19.180;2022-11-20T06:01:33;0.83;;;0.83;;
72139;SDS011;60018;49.688;19.180;2022-11-20T06:03:59;0.73;;;0.73;;
72139;SDS011;60018;49.688;19.180;2022-11-20T06:06:25;0.73;;;0.73;;
72139;SDS011;60018;49.688;19.180;2022-11-20T06:08:51;0.73;;;0.73;;
72139;SDS011;60018;49.688;19.180;2022-11-20T06:11:16;0.77;;;0.77;;
72139;SDS011;60018;49.688;19.180;2022-11-20T06:13:42;0.67;;;0.67;;
72139;SDS011;60018;49.688;19.180;2022-11-20T06:16:08;0.77;;;0.77;;
72139;SDS011;60018;49.688;19.180;2022-11-20T06:18:35;0.63;;;0.63;;
72139;SDS011;60018;49.688;19.180;2022-11-20T06:21:01;0.67;;;0.67;;
72139;SDS011;60018;49.688;19.180;2022-11-20T06:23:29;0.67;;;0.67;;
72139;SDS011;60018;49.688;19.180;2022-11-20T06:25:55;0.70;;;0.70;;
72139;SDS011;60018;49.688;19.180;2022-11-20T06:28:20;0.77;;;0.77;;
72139;SDS011;60018;49.688;19.180;2022-11-20T06:30:48;0.77;;;0.77;;
72139;SDS011;60018;49.688;19.180;2022-11-20T06:33:13;0.83;;;0.83;;
72139;SDS011;60018;49.688;19.180;2022-11-20T06:35:39;0.67;;;0.67;;
72139;SDS011;60018;49.688;19.180;2022-11-20T06:38:04;0.77;;;0.77;;
72139;SDS011;60018;49.688;19.180;2022-11-20T06:40:31;0.67;;;0.67;;
72139;SDS011;60018;49.688;19.180;2022-11-20T06:42:56;0.73;;;0.73;;
72139;SDS011;60018;49.688;19.180;2022-11-20T06:45:22;0.63;;;0.63;;
72139;SDS011;60018;49.688;19.180;2022-11-20T06:47:47;0.63;;;0.63;;
72139;SDS011;60018;49.688;19.180;2022-11-20T06:50:12;0.67;;;0.67;;
72139;SDS011;60018;49.688;19.180;2022-11-20T06:52:38;0.77;;;0.77;;
72139;SDS011;60018;49.688;19.180;2022-11-20T06:55:04;0.67;;;0.67;;
72139;SDS011;60018;49.688;19.180;2022-11-20T06:57:31;0.73;;;0.73;;
72139;SDS011;60018;49.688;19.180;2022-11-20T06:59:57;0.67;;;0.67;;
72139;SDS011;60018;49.688;19.180;2022-11-20T07:02:22;0.73;;;0.73;;
72139;SDS011;60018;49.688;19.180;2022-11-20T07:04:47;0.57;;;0.57;;
72139;SDS011;60018;49.688;19.180;2022-11-20T07:07:13;0.67;;;0.67;;
72139;SDS011;60018;49.688;19.180;2022-11-20T07:09:38;0.63;;;0.63;;
72139;SDS011;60018;49.688;19.180;2022-11-20T07:12:04;0.77;;;0.77;;
72139;SDS011;60018;49.688;19.180;2022-11-20T07:14:31;0.73;;;0.73;;
72139;SDS011;60018;49.688;19.180;2022-11-20T07:16:56;0.77;;;0.77;;
72139;SDS011;60018;49.688;19.180;2022-11-20T07:19:22;0.73;;;0.73;;
72139;SDS011;60018;49.688;19.180;2022-11-20T07:21:47;0.73;;;0.73;;
72139;SDS011;60018;49.688;19.180;2022-11-20T07:24:13;0.60;;;0.60;;
72139;SDS011;60018;49.688;19.180;2022-11-20T07:26:38;0.73;;;0.73;;
72139;SDS011;60018;49.688;19.180;2022-11-20T07:29:03;0.73;;;0.73;;
72139;SDS011;60018;49.688;19.180;2022-11-20T07:31:30;0.77;;;0.77;;
72139;SDS011;60018;49.688;19.180;2022-11-20T07:33:56;0.63;;;0.63;;
72139;SDS011;60018;49.688;19.180;2022-11-20T07:36:21;0.73;;;0.73;;
72139;SDS011;60018;49.688;19.180;2022-11-20T07:38:47;0.73;;;0.73;;
72139;SDS011;60018;49.688;19.180;2022-11-20T07:41:12;0.63;;;0.63;;
72139;SDS011;60018;49.688;19.180;2022-11-20T07:43:38;0.73;;;0.73;;
72139;SDS011;60018;49.688;19.180;2022-11-20T07:46:03;0.80;;;0.80;;
72139;SDS011;60018;49.688;19.180;2022-11-20T07:48:30;0.63;;;0.63;;
72139;SDS011;60018;49.688;19.180;2022-11-20T07:50:55;0.73;;;0.73;;
72139;SDS011;60018;49.688;19.180;2022-11-20T07:53:21;0.83;;;0.83;;
72139;SDS011;60018;49.688;19.180;2022-11-20T07:55:47;0.57;;;0.57;;
72139;SDS011;60018;49.688;19.180;2022-11-20T07:58:12;0.73;;;0.73;;
72139;SDS011;60018;49.688;19.180;2022-11-20T08:00:38;0.63;;;0.63;;
72139;SDS011;60018;49.688;19.180;2022-11-20T08:03:03;0.73;;;0.73;;
72139;SDS011;60018;49.688;19.180;2022-11-20T08:05:30;0.70;;;0.70;;
72139;SDS011;60018;49.688;19.180;2022-11-20T08:07:56;0.77;;;0.77;;
72139;SDS011;60018;49.688;19.180;2022-11-20T08:10:21;0.80;;;0.80;;
72139;SDS011;60018;49.688;19.180;2022-11-20T08:12:47;0.70;;;0.70;;
72139;SDS011;60018;49.688;19.180;2022-11-20T08:15:14;0.73;;;0.73;;
72139;SDS011;60018;49.688;19.180;2022-11-20T08:17:39;0.83;;;0.83;;
72139;SDS011;60018;49.688;19.180;2022-11-20T08:20:05;0.77;;;0.77;;
72139;SDS011;60018;49.688;19.180;2022-11-20T08:22:32;0.77;;;0.77;;
72139;SDS011;60018;49.688;19.180;2022-11-20T08:24:58;0.77;;;0.77;;
72139;SDS011;60018;49.688;19.180;2022-11-20T08:27:23;0.73;;;0.73;;
72139;SDS011;60018;49.688;19.180;2022-11-20T08:29:49;0.77;;;0.77;;
72139;SDS011;60018;49.688;19.180;2022-11-20T08:32:14;0.87;;;0.87;;
72139;SDS011;60018;49.688;19.180;2022-11-20T08:34:39;0.67;;;0.67;;
72139;SDS011;60018;49.688;19.180;2022-11-20T08:37:05;0.63;;;0.63;;
72139;SDS011;60018;49.688;19.180;2022-11-20T08:39:31;0.77;;;0.77;;
72139;SDS011;60018;49.688;19.180;2022-11-20T08:41:57;0.87;;;0.87;;
72139;SDS011;60018;49.688;19.180;2022-11-20T08:44:22;0.93;;;0.93;;
72139;SDS011;60018;49.688;19.180;2022-11-20T08:46:48;0.87;;;0.87;;
72139;SDS011;60018;49.688;19.180;2022-11-20T08:49:13;0.60;;;0.60;;
72139;SDS011;60018;49.688;19.180;2022-11-20T08:51:40;0.63;;;0.63;;
72139;SDS011;60018;49.688;19.180;2022-11-20T08:54:06;0.80;;;0.80;;
72139;SDS011;60018;49.688;19.180;2022-11-20T08:56:33;0.83;;;0.83;;
72139;SDS011;60018;49.688;19.180;2022-11-20T08:58:59;0.70;;;0.70;;
72139;SDS011;60018;49.688;19.180;2022-11-20T09:23:40;3.30;;;3.10;;
72139;SDS011;60018;49.688;19.180;2022-11-20T09:26:06;3.85;;;3.55;;
72139;SDS011;60018;49.688;19.180;2022-11-20T09:28:33;2.97;;;2.78;;
72139;SDS011;60018;49.688;19.180;2022-11-20T09:30:59;2.55;;;2.35;;
72139;SDS011;60018;49.688;19.180;2022-11-20T09:33:24;2.30;;;2.10;;
72139;SDS011;60018;49.688;19.180;2022-11-20T09:35:50;2.13;;;1.90;;
72139;SDS011;60018;49.688;19.180;2022-11-20T09:38:15;2.13;;;1.92;;
72139;SDS011;60018;49.688;19.180;2022-11-20T09:40:45;2.00;;;1.63;;
72139;SDS011;60018;49.688;19.180;2022-11-20T09:43:15;1.95;;;1.55;;
72139;SDS011;60018;49.688;19.180;2022-11-20T09:45:48;1.97;;;1.57;;
72139;SDS011;60018;49.688;19.180;2022-11-20T09:48:20;1.63;;;1.23;;
72139;SDS011;60018;49.688;19.180;2022-11-20T09:50:56;1.80;;;1.47;;
72139;SDS011;60018;49.688;19.180;2022-11-20T09:53:24;1.20;;;1.10;;
72139;SDS011;60018;49.688;19.180;2022-11-20T09:55:57;1.95;;;1.48;;
72139;SDS011;60018;49.688;19.180;2022-11-20T09:58:25;1.80;;;1.47;;
72139;SDS011;60018;49.688;19.180;2022-11-20T10:00:53;1.53;;;1.37;;
72139;SDS011;60018;49.688;19.180;2022-11-20T10:03:21;1.40;;;1.30;;
72139;SDS011;60018;49.688;19.180;2022-11-20T10:05:52;1.40;;;1.23;;
72139;SDS011;60018;49.688;19.180;2022-11-20T10:08:19;1.50;;;1.33;;
72139;SDS011;60018;49.688;19.180;2022-11-20T10:10:49;1.30;;;1.20;;
72139;SDS011;60018;49.688;19.180;2022-11-20T10:13:23;1.27;;;1.17;;
72139;SDS011;60018;49.688;19.180;2022-11-20T10:16:01;1.33;;;1.23;;
72139;SDS011;60018;49.688;19.180;2022-11-20T10:18:36;1.17;;;1.13;;
72139;SDS011;60018;49.688;19.180;2022-11-20T10:21:08;1.23;;;1.17;;
72139;SDS011;60018;49.688;19.180;2022-11-20T10:26:26;1.23;;;1.13;;
72139;SDS011;60018;49.688;19.180;2022-11-20T10:29:01;1.17;;;1.13;;
72139;SDS011;60018;49.688;19.180;2022-11-20T10:31:33;1.13;;;1.13;;
72139;SDS011;60018;49.688;19.180;2022-11-20T10:34:00;1.20;;;1.17;;
72139;SDS011;60018;49.688;19.180;2022-11-20T10:36:28;1.10;;;1.10;;
72139;SDS011;60018;49.688;19.180;2022-11-20T10:38:56;0.97;;;0.97;;
72139;SDS011;60018;49.688;19.180;2022-11-20T10:41:24;1.27;;;1.17;;
72139;SDS011;60018;49.688;19.180;2022-11-20T10:43:52;1.07;;;1.07;;
72139;SDS011;60018;49.688;19.180;2022-11-20T10:46:23;1.17;;;1.13;;
72139;SDS011;60018;49.688;19.180;2022-11-20T10:48:48;0.87;;;0.87;;
72139;SDS011;60018;49.688;19.180;2022-11-20T10:51:17;1.20;;;1.13;;
72139;SDS011;60018;49.688;19.180;2022-11-20T10:54:01;1.23;;;1.13;;
72139;SDS011;60018;49.688;19.180;2022-11-20T10:56:34;0.93;;;0.93;;
72139;SDS011;60018;49.688;19.180;2022-11-20T11:02:19;1.27;;;1.17;;
72139;SDS011;60018;49.688;19.180;2022-11-20T11:04:46;1.30;;;1.20;;
72139;SDS011;60018;49.688;19.180;2022-11-20T11:07:14;1.37;;;1.23;;
72139;SDS011;60018;49.688;19.180;2022-11-20T11:09:44;1.43;;;1.33;;
72139;SDS011;60018;49.688;19.180;2022-11-20T11:12:12;1.33;;;1.23;;
72139;SDS011;60018;49.688;19.180;2022-11-20T11:14:42;1.53;;;1.27;;
72139;SDS011;60018;49.688;19.180;2022-11-20T11:17:17;1.40;;;1.27;;
72139;SDS011;60018;49.688;19.180;2022-11-20T11:19:56;0.97;;;0.97;;
72139;SDS011;60018;49.688;19.180;2022-11-20T11:22:25;1.43;;;1.27;;
72139;SDS011;60018;49.688;19.180;2022-11-20T11:24:53;1.60;;;1.27;;
72139;SDS011;60018;49.688;19.180;2022-11-20T11:27:19;1.40;;;1.23;;
72139;SDS011;60018;49.688;19.180;2022-11-20T11:29:44;1.27;;;1.17;;
72139;SDS011;60018;49.688;19.180;2022-11-20T11:32:11;1.00;;;1.00;;
72139;SDS011;60018;49.688;19.180;2022-11-20T11:34:39;1.70;;;1.40;;
72139;SDS011;60018;49.688;19.180;2022-11-20T11:37:05;1.53;;;1.27;;
72139;SDS011;60018;49.688;19.180;2022-11-20T11:39:36;1.37;;;1.27;;
72139;SDS011;60018;49.688;19.180;2022-11-20T11:42:05;1.70;;;1.40;;
72139;SDS011;60018;49.688;19.180;2022-11-20T11:44:31;1.87;;;1.37;;
72139;SDS011;60018;49.688;19.180;2022-11-20T11:46:58;1.70;;;1.33;;
72139;SDS011;60018;49.688;19.180;2022-11-20T11:49:23;1.80;;;1.43;;
72139;SDS011;60018;49.688;19.180;2022-11-20T11:52:02;1.70;;;1.30;;
72139;SDS011;60018;49.688;19.180;2022-11-20T11:54:31;1.87;;;1.47;;
72139;SDS011;60018;49.688;19.180;2022-11-20T11:57:00;1.20;;;1.10;;
72139;SDS011;60018;49.688;19.180;2022-11-20T11:59:27;1.30;;;1.07;;
72139;SDS011;60018;49.688;19.180;2022-11-20T12:01:58;1.47;;;1.27;;
72139;SDS011;60018;49.688;19.180;2022-11-20T12:04:30;1.70;;;1.33;;
72139;SDS011;60018;49.688;19.180;2022-11-20T12:07:08;1.70;;;1.30;;
72139;SDS011;60018;49.688;19.180;2022-11-20T12:09:38;1.73;;;1.33;;
72139;SDS011;60018;49.688;19.180;2022-11-20T12:12:09;1.70;;;1.30;;
72139;SDS011;60018;49.688;19.180;2022-11-20T12:14:36;1.60;;;1.27;;
72139;SDS011;60018;49.688;19.180;2022-11-20T12:17:03;1.23;;;1.13;;
72139;SDS011;60018;49.688;19.180;2022-11-20T12:19:28;1.60;;;1.23;;
72139;SDS011;60018;49.688;19.180;2022-11-20T12:21:56;1.60;;;1.27;;
72139;SDS011;60018;49.688;19.180;2022-11-20T12:24:29;1.60;;;1.33;;
72139;SDS011;60018;49.688;19.180;2022-11-20T12:27:03;1.17;;;1.07;;
72139;SDS011;60018;49.688;19.180;2022-11-20T12:29:41;1.50;;;1.27;;
72139;SDS011;60018;49.688;19.180;2022-11-20T12:32:22;1.70;;;1.27;;
72139;SDS011;60018;49.688;19.180;2022-11-20T12:35:02;1.73;;;1.33;;
72139;SDS011;60018;49.688;19.180;2022-11-20T12:37:33;1.50;;;1.27;;
72139;SDS011;60018;49.688;19.180;2022-11-20T12:40:06;1.83;;;1.30;;
72139;SDS011;60018;49.688;19.180;2022-11-20T12:42:43;1.63;;;1.33;;
72139;SDS011;60018;49.688;19.180;2022-11-20T12:45:23;1.40;;;1.20;;
72139;SDS011;60018;49.688;19.180;2022-11-20T12:48:26;1.70;;;1.30;;
72139;SDS011;60018;49.688;19.180;2022-11-20T12:51:09;1.23;;;1.13;;
72139;SDS011;60018;49.688;19.180;2022-11-20T12:53:45;1.70;;;1.37;;
72139;SDS011;60018;49.688;19.180;2022-11-20T12:56:22;1.90;;;1.40;;
72139;SDS011;60018;49.688;19.180;2022-11-20T12:58:59;1.70;;;1.30;;
72139;SDS011;60018;49.688;19.180;2022-11-20T13:01:30;1.83;;;1.37;;
72139;SDS011;60018;49.688;19.180;2022-11-20T13:04:12;1.80;;;1.40;;
72139;SDS011;60018;49.688;19.180;2022-11-20T13:06:44;1.90;;;1.47;;
72139;SDS011;60018;49.688;19.180;2022-11-20T13:09:11;1.30;;;1.13;;
72139;SDS011;60018;49.688;19.180;2022-11-20T13:11:41;1.63;;;1.30;;
72139;SDS011;60018;49.688;19.180;2022-11-20T13:14:14;1.93;;;1.50;;
72139;SDS011;60018;49.688;19.180;2022-11-20T13:16:45;1.90;;;1.50;;
72139;SDS011;60018;49.688;19.180;2022-11-20T13:19:14;1.97;;;1.57;;
72139;SDS011;60018;49.688;19.180;2022-11-20T13:21:41;1.77;;;1.40;;
72139;SDS011;60018;49.688;19.180;2022-11-20T13:24:19;1.80;;;1.37;;
72139;SDS011;60018;49.688;19.180;2022-11-20T13:26:48;1.13;;;1.03;;
72139;SDS011;60018;49.688;19.180;2022-11-20T13:29:25;1.70;;;1.33;;
72139;SDS011;60018;49.688;19.180;2022-11-20T13:31:50;1.60;;;1.27;;
72139;SDS011;60018;49.688;19.180;2022-11-20T13:34:22;1.70;;;1.30;;
72139;SDS011;60018;49.688;19.180;2022-11-20T13:36:49;1.75;;;1.17;;
72139;SDS011;60018;49.688;19.180;2022-11-20T13:39:23;1.70;;;1.40;;
72139;SDS011;60018;49.688;19.180;2022-11-20T13:41:55;1.27;;;1.17;;
72139;SDS011;60018;49.688;19.180;2022-11-20T13:44:23;1.40;;;1.23;;
72139;SDS011;60018;49.688;19.180;2022-11-20T13:46:50;1.13;;;1.03;;
72139;SDS011;60018;49.688;19.180;2022-11-20T13:49:17;1.53;;;1.27;;
72139;SDS011;60018;49.688;19.180;2022-11-20T13:51:43;1.60;;;1.33;;
72139;SDS011;60018;49.688;19.180;2022-11-20T13:57:17;1.50;;;1.30;;
72139;SDS011;60018;49.688;19.180;2022-11-20T14:00:09;1.60;;;1.27;;
72139;SDS011;60018;49.688;19.180;2022-11-20T14:02:37;1.00;;;1.00;;
72139;SDS011;60018;49.688;19.180;2022-11-20T14:05:02;1.60;;;1.33;;
72139;SDS011;60018;49.688;19.180;2022-11-20T14:07:31;1.17;;;1.07;;
72139;SDS011;60018;49.688;19.180;2022-11-20T14:10:00;1.33;;;1.23;;
72139;SDS011;60018;49.688;19.180;2022-11-20T14:12:29;1.40;;;1.23;;
72139;SDS011;60018;49.688;19.180;2022-11-20T14:14:55;0.93;;;0.93;;
72139;SDS011;60018;49.688;19.180;2022-11-20T14:17:22;1.47;;;1.20;;
72139;SDS011;60018;49.688;19.180;2022-11-20T14:19:49;0.93;;;0.93;;
72139;SDS011;60018;49.688;19.180;2022-11-20T14:22:17;0.93;;;0.93;;
72139;SDS011;60018;49.688;19.180;2022-11-20T14:24:44;1.20;;;1.10;;
72139;SDS011;60018;49.688;19.180;2022-11-20T14:27:11;1.27;;;1.17;;
72139;SDS011;60018;49.688;19.180;2022-11-20T14:29:39;1.23;;;1.13;;
72139;SDS011;60018;49.688;19.180;2022-11-20T14:32:05;0.93;;;0.93;;
72139;SDS011;60018;49.688;19.180;2022-11-20T14:34:31;1.33;;;1.23;;
72139;SDS011;60018;49.688;19.180;2022-11-20T14:36:59;0.90;;;0.90;;
72139;SDS011;60018;49.688;19.180;2022-11-20T14:39:27;1.27;;;1.17;;
72139;SDS011;60018;49.688;19.180;2022-11-20T14:41:56;1.20;;;1.13;;
72139;SDS011;60018;49.688;19.180;2022-11-20T14:44:23;1.23;;;1.13;;
72139;SDS011;60018;49.688;19.180;2022-11-20T14:46:52;1.30;;;1.17;;
72139;SDS011;60018;49.688;19.180;2022-11-20T14:49:19;0.90;;;0.90;;
72139;SDS011;60018;49.688;19.180;2022-11-20T14:51:45;0.80;;;0.80;;
72139;SDS011;60018;49.688;19.180;2022-11-20T14:54:11;1.23;;;1.13;;
72139;SDS011;60018;49.688;19.180;2022-11-20T14:56:37;1.07;;;1.07;;
72139;SDS011;60018;49.688;19.180;2022-11-20T14:59:02;0.80;;;0.80;;
72139;SDS011;60018;49.688;19.180;2022-11-20T15:01:28;1.10;;;1.10;;
72139;SDS011;60018;49.688;19.180;2022-11-20T15:04:00;1.07;;;1.07;;
72139;SDS011;60018;49.688;19.180;2022-11-20T15:06:29;1.23;;;1.17;;